Time;durP1;ratioP1;P1;durP2;ratioP2;P2;SDS_P1;SDS_P2;PMS_P1;PMS_P2;Temp;Humidity;BMP_temperature;BMP_pressure;BME280_temperature;BME280_humidity;BME280_pressure;Samples;Min_cycle;Max_cycle;Signal;HPM_P1;HPM_P2
2023/08/29 07:23:36;;;;;;;7.65;5.13;;;19.10;99.90;;;;;;4800456;23;20643;-72
2023/08/29 07:26:03;;;;;;;5.97;4.28;;;19.30;99.90;;;;;;4937312;28;20212;-72
2023/08/29 07:28:30;;;;;;;13.60;4.97;;;19.40;99.90;;;;;;4941522;28;20240;-72
2023/08/29 07:30:58;;;;;;;6.00;4.53;;;19.30;99.90;;;;;;4950615;28;20687;-71
2023/08/29 07:33:25;;;;;;;7.18;4.78;;;19.20;99.90;;;;;;4945869;28;20208;-72
2023/08/29 07:35:55;;;;;;;6.72;5.18;;;19.10;99.90;;;;;;4937033;28;20752;-72
2023/08/29 07:38:22;;;;;;;6.72;4.90;;;18.90;99.90;;;;;;4936985;28;20236;-71
2023/08/29 07:40:50;;;;;;;6.95;4.93;;;18.90;99.90;;;;;;4952683;28;20228;-73
2023/08/29 07:43:17;;;;;;;8.75;6.25;;;18.80;99.90;;;;;;4956640;29;20232;-73
2023/08/29 07:45:45;;;;;;;8.43;5.30;;;18.80;99.90;;;;;;4956417;29;20761;-73
2023/08/29 07:48:12;;;;;;;5.65;4.40;;;18.70;99.90;;;;;;4956420;28;20236;-73
2023/08/29 07:50:38;;;;;;;7.28;5.22;;;18.80;99.90;;;;;;4956297;28;20237;-72
2023/08/29 07:53:05;;;;;;;8.07;5.28;;;18.70;99.90;;;;;;4956007;28;20235;-72
2023/08/29 07:55:32;;;;;;;8.30;5.18;;;18.80;99.90;;;;;;4956356;29;20243;-72
2023/08/29 07:58:01;;;;;;;8.05;5.35;;;18.80;99.90;;;;;;4956076;29;20298;-72
2023/08/29 08:00:28;;;;;;;10.73;5.60;;;18.80;99.90;;;;;;4955684;29;20315;-73
2023/08/29 08:02:55;;;;;;;8.65;5.15;;;18.80;99.90;;;;;;4955951;29;20216;-71
2023/08/29 08:05:23;;;;;;;7.38;5.00;;;18.70;99.90;;;;;;4955808;29;20619;-72
2023/08/29 08:07:50;;;;;;;8.52;4.85;;;18.60;99.90;;;;;;4951885;28;20239;-72
2023/08/29 08:10:18;;;;;;;7.53;5.28;;;18.80;99.90;;;;;;4953527;28;20251;-72
2023/08/29 08:12:46;;;;;;;7.57;4.93;;;18.80;99.90;;;;;;4955174;28;20214;-74
2023/08/29 08:15:16;;;;;;;7.45;5.35;;;18.90;99.90;;;;;;4950466;28;20295;-72
2023/08/29 08:17:43;;;;;;;7.32;4.93;;;18.90;99.90;;;;;;4953716;28;20216;-72
2023/08/29 08:20:12;;;;;;;7.57;5.38;;;18.90;99.90;;;;;;4953450;28;20255;-74
2023/08/29 08:22:39;;;;;;;8.50;4.95;;;18.80;99.90;;;;;;4953798;28;20212;-73
2023/08/29 08:25:07;;;;;;;11.07;5.40;;;19.10;99.90;;;;;;4951186;28;20240;-72
2023/08/29 08:27:36;;;;;;;6.78;4.95;;;19.20;99.90;;;;;;4953997;28;20235;-72
2023/08/29 08:30:05;;;;;;;8.85;5.38;;;19.30;99.90;;;;;;4953033;28;20236;-72
2023/08/29 08:32:33;;;;;;;7.55;5.07;;;19.30;99.90;;;;;;4953500;28;20274;-72
2023/08/29 08:35:00;;;;;;;9.18;6.03;;;19.40;99.90;;;;;;4950937;28;20239;-72
2023/08/29 08:37:27;;;;;;;8.95;5.63;;;19.40;99.90;;;;;;4952246;28;20219;-72
2023/08/29 08:39:54;;;;;;;7.30;4.20;;;19.40;99.90;;;;;;4953021;28;20627;-71
2023/08/29 08:42:21;;;;;;;8.77;4.63;;;19.60;99.90;;;;;;4953990;28;20258;-74
2023/08/29 08:44:49;;;;;;;7.55;5.10;;;19.80;99.90;;;;;;4952436;28;20247;-71
2023/08/29 08:47:15;;;;;;;7.65;4.95;;;19.80;99.90;;;;;;4951774;28;20295;-72
2023/08/29 08:49:44;;;;;;;8.77;5.43;;;19.80;99.90;;;;;;4953520;28;20260;-73
2023/08/29 08:52:12;;;;;;;7.57;4.75;;;20.00;99.90;;;;;;4953187;28;20634;-72
2023/08/29 08:54:39;;;;;;;8.95;5.05;;;19.90;99.90;;;;;;4953435;28;20210;-72
2023/08/29 08:57:06;;;;;;;7.40;5.53;;;20.00;99.90;;;;;;4953397;28;20239;-73
2023/08/29 08:59:34;;;;;;;6.85;4.75;;;20.10;99.90;;;;;;4953386;28;20223;-72
2023/08/29 09:02:01;;;;;;;9.90;5.50;;;19.90;99.90;;;;;;4952966;28;20243;-71
2023/08/29 09:04:28;;;;;;;7.90;4.97;;;19.90;99.90;;;;;;4952944;28;20291;-69
2023/08/29 09:06:56;;;;;;;6.82;5.03;;;19.90;99.90;;;;;;4951753;28;20292;-68
2023/08/29 09:09:23;;;;;;;8.55;4.90;;;20.00;99.90;;;;;;4948709;28;20549;-72
2023/08/29 09:11:54;;;;;;;10.77;4.97;;;20.00;99.90;;;;;;4951715;28;20811;-71
2023/08/29 09:14:21;;;;;;;7.47;4.35;;;20.10;99.90;;;;;;4951703;28;20291;-70
2023/08/29 09:16:52;;;;;;;8.57;4.80;;;20.00;99.90;;;;;;4951787;28;20240;-73
2023/08/29 09:19:22;;;;;;;6.80;4.68;;;20.10;99.90;;;;;;4952885;28;20228;-69
2023/08/29 09:21:49;;;;;;;6.38;4.57;;;20.10;99.90;;;;;;4952343;28;20639;-70
2023/08/29 09:24:23;;;;;;;7.28;4.40;;;20.10;99.90;;;;;;4952678;28;20302;-69
2023/08/29 09:26:50;;;;;;;6.10;4.60;;;20.20;99.90;;;;;;4953117;28;20258;-69
2023/08/29 09:29:18;;;;;;;6.93;4.97;;;20.40;99.90;;;;;;4951271;28;20242;-69
2023/08/29 09:31:46;;;;;;;8.18;4.63;;;20.60;99.90;;;;;;4952790;28;20226;-69
2023/08/29 09:34:27;;;;;;;6.25;4.18;;;20.80;99.90;;;;;;4952118;28;20200;-73
2023/08/29 09:36:54;;;;;;;5.28;4.18;;;21.00;99.90;;;;;;4952686;28;20612;-72
2023/08/29 09:39:23;;;;;;;5.82;4.43;;;21.20;99.90;;;;;;4952316;28;20654;-68
2023/08/29 09:42:00;;;;;;;7.80;4.60;;;21.20;99.90;;;;;;4957258;28;20244;-69
2023/08/29 09:44:27;;;;;;;4.82;4.03;;;21.10;99.90;;;;;;4955331;28;20212;-73
2023/08/29 09:46:54;;;;;;;7.20;4.35;;;21.20;99.90;;;;;;4956209;28;20590;-70
2023/08/29 09:49:21;;;;;;;5.32;4.00;;;21.20;99.90;;;;;;4956692;28;20318;-69
2023/08/29 09:51:49;;;;;;;7.28;4.18;;;21.30;99.90;;;;;;4956150;28;20240;-73
2023/08/29 09:54:19;;;;;;;6.70;4.10;;;21.20;99.90;;;;;;4956103;28;20381;-70
2023/08/29 09:56:48;;;;;;;5.32;3.67;;;21.20;99.90;;;;;;4941038;28;20295;-72
2023/08/29 09:59:18;;;;;;;6.20;3.78;;;21.10;99.90;;;;;;4955908;28;20298;-69
2023/08/29 10:01:47;;;;;;;5.15;3.15;;;21.00;99.90;;;;;;4956118;28;20247;-68
2023/08/29 10:04:20;;;;;;;4.95;2.97;;;21.10;99.90;;;;;;4955707;28;20258;-68
2023/08/29 10:06:49;;;;;;;4.53;3.10;;;21.20;99.90;;;;;;4956847;28;20207;-72
2023/08/29 10:09:18;;;;;;;3.63;2.58;;;21.30;99.90;;;;;;4955747;28;20721;-70
2023/08/29 10:11:45;;;;;;;4.55;2.55;;;21.70;99.90;;;;;;4955944;28;20212;-69
2023/08/29 10:14:15;;;;;;;2.85;2.13;;;22.00;99.90;;;;;;4956074;28;20299;-71
2023/08/29 10:16:42;;;;;;;3.28;2.20;;;21.80;99.90;;;;;;4956003;28;20635;-71
2023/08/29 10:19:11;;;;;;;3.30;2.30;;;21.90;99.90;;;;;;4955616;28;20270;-72
2023/08/29 10:21:39;;;;;;;2.30;2.03;;;22.10;99.90;;;;;;4955634;28;20251;-70
2023/08/29 10:24:07;;;;;;;3.42;2.15;;;22.10;99.90;;;;;;4955921;28;20456;-69
2023/08/29 10:26:36;;;;;;;2.30;2.10;;;22.00;99.90;;;;;;4955646;28;20643;-72
2023/08/29 10:29:02;;;;;;;4.47;1.98;;;22.20;99.90;;;;;;4955389;28;20686;-68
2023/08/29 10:31:31;;;;;;;3.13;1.63;;;22.40;99.90;;;;;;4955822;28;20295;-72
2023/08/29 10:33:58;;;;;;;2.65;2.03;;;22.30;99.90;;;;;;4955599;28;20235;-69
2023/08/29 10:36:25;;;;;;;4.10;1.98;;;22.40;99.90;;;;;;4957100;28;20247;-67
2023/08/29 10:38:53;;;;;;;2.08;1.83;;;22.10;99.90;;;;;;4956011;28;20235;-68
2023/08/29 10:41:21;;;;;;;3.30;1.73;;;22.40;99.90;;;;;;4957345;28;20223;-74
2023/08/29 10:43:50;;;;;;;2.33;1.70;;;22.30;99.90;;;;;;4957018;28;20242;-68
2023/08/29 10:46:17;;;;;;;1.92;1.63;;;22.50;99.90;;;;;;4957288;28;20244;-69
2023/08/29 10:48:52;;;;;;;2.55;2.30;;;22.70;99.90;;;;;;4956679;28;20271;-73
2023/08/29 10:51:25;;;;;;;3.00;1.73;;;22.90;99.90;;;;;;4955951;28;20207;-72
2023/08/29 10:53:53;;;;;;;2.20;1.75;;;22.70;99.90;;;;;;4956760;28;20223;-73
2023/08/29 10:56:26;;;;;;;2.47;1.98;;;22.50;99.90;;;;;;4956880;28;20279;-71
2023/08/29 10:58:53;;;;;;;3.00;2.70;;;22.50;99.90;;;;;;4956530;28;20310;-71
2023/08/29 11:01:31;;;;;;;2.55;1.90;;;22.20;99.90;;;;;;4956996;28;20243;-71
2023/08/29 11:04:00;;;;;;;1.67;1.27;;;22.00;99.90;;;;;;4956561;28;20212;-70
2023/08/29 11:06:48;;;;;;;1.63;1.20;;;22.20;99.90;;;;;;4956825;28;20208;-71
2023/08/29 11:09:20;;;;;;;1.65;1.15;;;22.50;99.90;;;;;;4956200;28;20242;-73
2023/08/29 11:12:08;;;;;;;2.33;1.17;;;22.50;99.90;;;;;;4956687;28;20693;-73
2023/08/29 11:14:51;;;;;;;1.15;0.98;;;22.80;99.90;;;;;;4956650;28;20254;-73
2023/08/29 11:17:23;;;;;;;1.90;1.10;;;23.10;99.90;;;;;;4941311;28;20204;-71
2023/08/29 11:19:53;;;;;;;1.23;0.98;;;23.00;99.90;;;;;;4956271;28;20562;-72
2023/08/29 11:22:22;;;;;;;1.05;0.98;;;23.10;99.90;;;;;;4956281;28;20679;-73
2023/08/29 11:24:54;;;;;;;1.13;0.85;;;22.90;99.90;;;;;;4956015;28;20295;-71
2023/08/29 11:27:22;;;;;;;1.33;1.05;;;23.00;99.90;;;;;;4941199;28;20286;-72
2023/08/29 11:29:49;;;;;;;1.35;0.95;;;22.60;99.90;;;;;;4955562;28;20667;-72
2023/08/29 11:32:17;;;;;;;1.65;0.90;;;22.60;99.90;;;;;;4956159;28;20705;-72
2023/08/29 11:34:44;;;;;;;2.88;0.90;;;22.50;99.90;;;;;;4956091;28;20295;-72
2023/08/29 11:37:12;;;;;;;1.10;0.95;;;22.40;99.90;;;;;;4956031;28;20310;-72
2023/08/29 11:39:39;;;;;;;1.10;0.70;;;22.30;99.90;;;;;;4955745;28;20251;-72
2023/08/29 11:42:07;;;;;;;2.72;1.02;;;22.50;99.90;;;;;;4956190;28;20254;-71
2023/08/29 11:44:34;;;;;;;1.25;0.95;;;22.20;99.90;;;;;;4955897;28;20206;-71
2023/08/29 11:47:02;;;;;;;1.00;0.80;;;22.30;99.90;;;;;;4955860;28;20251;-70
2023/08/29 11:49:29;;;;;;;1.30;0.93;;;22.30;99.90;;;;;;4955328;28;20598;-73
2023/08/29 11:51:56;;;;;;;1.20;0.90;;;22.40;99.90;;;;;;4956223;29;20212;-71
2023/08/29 11:54:41;;;;;;;1.58;0.70;;;22.20;99.90;;;;;;4956202;28;20635;-72
2023/08/29 11:57:11;;;;;;;2.20;0.90;;;22.10;99.90;;;;;;4956431;28;20258;-72
2023/08/29 11:59:41;;;;;;;0.85;0.80;;;22.30;99.90;;;;;;4956002;28;20228;-71
2023/08/29 12:02:10;;;;;;;2.67;0.82;;;22.80;99.90;;;;;;4955929;28;20222;-70
2023/08/29 12:04:41;;;;;;;1.00;0.85;;;23.10;99.90;;;;;;4955958;29;20570;-70
2023/08/29 12:07:12;;;;;;;2.42;0.80;;;23.30;99.90;;;;;;4956079;29;20208;-71
2023/08/29 12:09:42;;;;;;;2.65;1.10;;;23.40;99.90;;;;;;4955597;28;20235;-73
2023/08/29 12:12:10;;;;;;;1.33;0.98;;;23.70;99.90;;;;;;4956017;28;20208;-71
2023/08/29 12:14:50;;;;;;;1.13;0.93;;;24.00;99.90;;;;;;4955716;29;20211;-71
2023/08/29 12:17:18;;;;;;;4.03;1.85;;;24.00;99.90;;;;;;4955697;29;20233;-71
2023/08/29 12:19:45;;;;;;;1.63;1.30;;;24.20;99.90;;;;;;4948963;28;20235;-69
2023/08/29 12:22:12;;;;;;;1.25;1.00;;;24.30;99.90;;;;;;4955259;28;20243;-69
2023/08/29 12:24:40;;;;;;;1.75;1.00;;;24.10;99.90;;;;;;4955129;28;20608;-69
2023/08/29 12:27:07;;;;;;;0.90;0.73;;;24.00;99.90;;;;;;4955494;28;20218;-69
2023/08/29 12:29:34;;;;;;;1.00;0.90;;;24.00;99.90;;;;;;4954962;28;20250;-73
2023/08/29 12:32:01;;;;;;;2.58;1.00;;;23.80;99.90;;;;;;4955097;28;20235;-69
2023/08/29 12:34:28;;;;;;;2.20;1.00;;;23.90;99.90;;;;;;4954847;28;20291;-75
2023/08/29 12:36:55;;;;;;;1.02;0.93;;;23.90;99.90;;;;;;4948771;28;20215;-69
2023/08/29 12:39:22;;;;;;;1.60;0.93;;;23.90;99.90;;;;;;4953676;28;20327;-77
2023/08/29 12:41:51;;;;;;;2.00;1.27;;;24.00;99.90;;;;;;4953939;28;20239;-68
2023/08/29 12:44:17;;;;;;;2.72;1.10;;;24.00;99.90;;;;;;4952721;28;20358;-68
2023/08/29 12:46:44;;;;;;;3.13;0.95;;;24.00;99.90;;;;;;4953968;28;20250;-67
2023/08/29 12:49:11;;;;;;;1.00;0.88;;;23.90;99.90;;;;;;4954324;28;20330;-69
2023/08/29 12:51:38;;;;;;;1.20;0.90;;;23.70;99.90;;;;;;4955063;28;20311;-72
2023/08/29 12:54:05;;;;;;;1.42;1.00;;;23.50;99.90;;;;;;4954675;28;20215;-72
2023/08/29 12:56:32;;;;;;;1.15;0.80;;;23.40;99.90;;;;;;4955138;28;20624;-70
2023/08/29 12:59:00;;;;;;;1.50;0.90;;;23.50;99.90;;;;;;4954531;28;20730;-70
2023/08/29 13:01:28;;;;;;;1.73;0.80;;;23.60;99.90;;;;;;4954569;28;20235;-70
2023/08/29 13:03:56;;;;;;;2.50;0.90;;;23.30;99.90;;;;;;4954858;28;20294;-70
2023/08/29 13:06:23;;;;;;;3.00;0.90;;;23.40;99.90;;;;;;4954406;28;20690;-71
2023/08/29 13:08:50;;;;;;;2.42;0.90;;;23.30;99.90;;;;;;4954107;28;20268;-71
2023/08/29 13:11:17;;;;;;;2.90;0.80;;;23.40;99.90;;;;;;4954777;28;20636;-71
2023/08/29 13:13:45;;;;;;;1.88;1.00;;;23.20;99.90;;;;;;4954432;28;20295;-71
2023/08/29 13:16:16;;;;;;;1.40;1.10;;;23.20;99.90;;;;;;4953598;28;20204;-71
2023/08/29 13:18:43;;;;;;;1.50;1.10;;;23.10;99.90;;;;;;4955040;28;20200;-71
2023/08/29 13:21:11;;;;;;;5.38;1.17;;;23.00;99.90;;;;;;4954529;28;20291;-70
2023/08/29 13:23:38;;;;;;;3.17;1.17;;;22.90;99.90;;;;;;4954166;28;20231;-71
2023/08/29 13:26:05;;;;;;;2.22;1.30;;;22.70;99.90;;;;;;4954201;28;20208;-70
2023/08/29 13:28:32;;;;;;;1.90;0.93;;;22.60;99.90;;;;;;4953938;28;20624;-71
2023/08/29 13:30:59;;;;;;;2.42;1.13;;;22.30;99.90;;;;;;4954700;28;20281;-72
2023/08/29 13:33:27;;;;;;;1.10;0.82;;;22.10;99.90;;;;;;4954507;28;20564;-70
2023/08/29 13:35:54;;;;;;;1.52;1.00;;;21.90;99.90;;;;;;4954734;28;20299;-71
2023/08/29 13:38:21;;;;;;;2.35;1.00;;;21.70;99.90;;;;;;4953833;28;20251;-71
2023/08/29 13:40:51;;;;;;;6.72;1.15;;;21.60;99.90;;;;;;4954198;28;20315;-71
2023/08/29 13:43:18;;;;;;;1.40;1.30;;;21.60;99.90;;;;;;4947125;28;20247;-71
2023/08/29 13:45:45;;;;;;;2.95;1.85;;;21.30;99.90;;;;;;4953954;28;20243;-71
2023/08/29 13:48:12;;;;;;;1.50;1.20;;;21.10;99.90;;;;;;4954660;28;20260;-70
2023/08/29 13:50:40;;;;;;;2.05;1.42;;;21.10;99.90;;;;;;4953943;28;20326;-71
2023/08/29 13:53:07;;;;;;;1.73;1.30;;;21.10;99.90;;;;;;4954527;28;20244;-71
2023/08/29 13:55:35;;;;;;;2.22;1.63;;;21.00;99.90;;;;;;4954487;28;20235;-70
2023/08/29 13:58:02;;;;;;;2.78;1.08;;;21.00;99.90;;;;;;4954654;29;20247;-70
2023/08/29 14:00:29;;;;;;;1.95;1.20;;;21.00;99.90;;;;;;4954526;28;20235;-71
2023/08/29 14:02:56;;;;;;;1.50;1.05;;;21.00;99.90;;;;;;4954551;29;20848;-70
2023/08/29 14:05:23;;;;;;;2.25;1.05;;;20.90;99.90;;;;;;4954435;29;20278;-70
2023/08/29 14:07:51;;;;;;;2.35;1.15;;;21.00;99.90;;;;;;4954249;28;20674;-70
2023/08/29 14:10:18;;;;;;;1.05;0.85;;;21.00;99.90;;;;;;4954055;28;20326;-70
2023/08/29 14:12:45;;;;;;;1.67;1.00;;;20.90;99.90;;;;;;4954395;28;20250;-71
2023/08/29 14:15:12;;;;;;;1.25;0.80;;;20.90;99.90;;;;;;4954162;29;20219;-71
2023/08/29 14:17:39;;;;;;;0.98;0.75;;;20.90;99.90;;;;;;4954071;29;20575;-71
2023/08/29 14:20:07;;;;;;;1.35;0.60;;;20.90;99.90;;;;;;4954182;28;20286;-70
2023/08/29 14:22:34;;;;;;;1.77;0.77;;;21.00;99.90;;;;;;4954144;28;20321;-71
2023/08/29 14:25:02;;;;;;;1.13;0.70;;;20.90;99.90;;;;;;4954166;28;20250;-70
2023/08/29 14:27:29;;;;;;;3.03;1.20;;;21.00;99.90;;;;;;4957087;28;20636;-70
2023/08/29 14:29:56;;;;;;;1.33;0.90;;;21.00;99.90;;;;;;4957726;28;20331;-71
2023/08/29 14:32:23;;;;;;;1.55;0.88;;;21.10;99.90;;;;;;4957871;28;20259;-71
2023/08/29 14:34:50;;;;;;;0.88;0.70;;;21.10;99.90;;;;;;4957599;28;20248;-71
2023/08/29 14:37:17;;;;;;;4.32;1.02;;;21.20;99.90;;;;;;4957500;29;20247;-71
2023/08/29 14:39:45;;;;;;;1.50;1.00;;;21.40;99.90;;;;;;4957240;28;20259;-70
2023/08/29 14:42:14;;;;;;;1.55;0.80;;;21.50;99.90;;;;;;4957274;29;20244;-71
2023/08/29 14:44:41;;;;;;;1.75;1.00;;;21.60;99.90;;;;;;4957204;29;20303;-71
2023/08/29 14:47:08;;;;;;;2.17;1.02;;;21.80;99.90;;;;;;4957211;28;20710;-71
2023/08/29 14:49:36;;;;;;;1.77;1.05;;;21.90;99.90;;;;;;4957250;28;20232;-71
2023/08/29 14:52:04;;;;;;;1.98;1.02;;;22.10;99.90;;;;;;4957276;29;20737;-70
2023/08/29 14:54:31;;;;;;;2.72;1.20;;;21.90;99.90;;;;;;4957176;29;20243;-70
2023/08/29 14:56:58;;;;;;;2.08;1.35;;;21.90;99.90;;;;;;4957122;29;20769;-71
2023/08/29 14:59:26;;;;;;;3.30;1.50;;;21.90;99.90;;;;;;4957114;28;20290;-71
2023/08/29 15:01:54;;;;;;;3.60;1.50;;;22.00;99.90;;;;;;4957092;29;20207;-71
2023/08/29 15:04:21;;;;;;;2.38;1.30;;;22.00;99.90;;;;;;4957084;28;20208;-71
2023/08/29 15:06:48;;;;;;;3.88;1.60;;;22.00;99.90;;;;;;4957216;29;20638;-70
2023/08/29 15:09:15;;;;;;;3.40;1.52;;;22.10;99.90;;;;;;4956983;28;20263;-71
2023/08/29 15:11:42;;;;;;;3.13;1.60;;;21.90;99.90;;;;;;4956989;28;20212;-71
2023/08/29 15:14:09;;;;;;;5.57;2.10;;;22.00;99.90;;;;;;4956823;28;20218;-71
2023/08/29 15:16:37;;;;;;;1.92;1.42;;;22.20;99.90;;;;;;4956532;28;20259;-70
2023/08/29 15:19:04;;;;;;;4.00;1.52;;;22.30;99.90;;;;;;4956645;28;20759;-71
2023/08/29 15:21:31;;;;;;;3.45;1.60;;;22.30;99.90;;;;;;4956845;29;20259;-72
2023/08/29 15:23:58;;;;;;;3.38;1.38;;;22.30;99.90;;;;;;4956955;29;20211;-71
2023/08/29 15:26:25;;;;;;;2.40;1.20;;;22.20;99.90;;;;;;4956663;29;20248;-71
2023/08/29 15:28:52;;;;;;;2.03;1.50;;;22.40;99.90;;;;;;4956771;28;20232;-71
2023/08/29 15:31:19;;;;;;;2.17;1.50;;;22.20;99.90;;;;;;4956673;29;20258;-71
2023/08/29 15:33:47;;;;;;;2.22;1.23;;;22.30;99.90;;;;;;4956483;29;20243;-72
2023/08/29 15:36:14;;;;;;;1.85;1.42;;;22.30;99.90;;;;;;4956535;29;20267;-71
2023/08/29 15:38:42;;;;;;;2.35;1.38;;;22.30;99.90;;;;;;4955457;28;20738;-71
2023/08/29 15:41:11;;;;;;;3.83;1.50;;;22.10;99.90;;;;;;4956787;29;20216;-71
2023/08/29 15:43:37;;;;;;;2.35;1.95;;;22.00;99.90;;;;;;4956367;29;20222;-71
2023/08/29 15:46:07;;;;;;;2.55;1.23;;;21.90;99.90;;;;;;4956221;29;20635;-71
2023/08/29 15:48:34;;;;;;;3.70;1.58;;;21.80;99.90;;;;;;4956224;28;20219;-71
2023/08/29 15:51:04;;;;;;;3.85;1.00;;;21.90;99.90;;;;;;4956169;29;20326;-71
2023/08/29 15:53:32;;;;;;;1.92;1.20;;;21.80;99.90;;;;;;4955806;29;20662;-71
2023/08/29 15:56:03;;;;;;;3.38;1.10;;;21.80;99.90;;;;;;4955980;28;20299;-71
2023/08/29 15:58:30;;;;;;;3.42;1.25;;;21.70;99.90;;;;;;4955941;28;20220;-71
2023/08/29 16:00:59;;;;;;;2.92;1.05;;;21.70;99.90;;;;;;4956211;29;20231;-71
2023/08/29 16:03:26;;;;;;;2.58;1.08;;;21.60;99.90;;;;;;4955979;28;20212;-71
2023/08/29 16:05:53;;;;;;;1.88;1.20;;;21.60;99.90;;;;;;4955766;29;20246;-71
2023/08/29 16:08:21;;;;;;;4.32;1.33;;;21.60;99.90;;;;;;4955931;28;20250;-71
2023/08/29 16:10:48;;;;;;;3.00;1.02;;;21.40;99.90;;;;;;4955784;28;20651;-71
2023/08/29 16:13:15;;;;;;;2.75;1.42;;;21.30;99.90;;;;;;4955895;28;20291;-72
2023/08/29 16:15:42;;;;;;;5.38;1.33;;;21.30;99.90;;;;;;4955905;29;20244;-73
2023/08/29 16:18:08;;;;;;;2.72;1.20;;;21.30;99.90;;;;;;4955623;29;20216;-73
2023/08/29 16:20:35;;;;;;;2.72;1.45;;;21.20;99.90;;;;;;4955579;28;20293;-72
2023/08/29 16:23:02;;;;;;;2.38;1.33;;;21.20;99.90;;;;;;4955624;29;20251;-72
2023/08/29 16:25:31;;;;;;;2.10;1.17;;;21.30;99.90;;;;;;4955685;28;20244;-72
2023/08/29 16:27:59;;;;;;;1.52;1.17;;;21.20;99.90;;;;;;4955494;28;20239;-72
2023/08/29 16:30:27;;;;;;;2.30;1.25;;;21.20;99.90;;;;;;4955435;28;20332;-72
2023/08/29 16:32:54;;;;;;;1.80;1.10;;;21.20;99.90;;;;;;4955315;29;20697;-72
2023/08/29 16:35:21;;;;;;;2.15;1.20;;;21.20;99.90;;;;;;4955571;29;20242;-72
2023/08/29 16:37:48;;;;;;;2.03;1.08;;;21.20;99.90;;;;;;4955471;29;20255;-72
2023/08/29 16:40:14;;;;;;;1.65;0.98;;;21.10;99.90;;;;;;4954997;28;20310;-72
2023/08/29 16:42:43;;;;;;;3.75;1.10;;;21.10;99.90;;;;;;4955467;29;20630;-72
2023/08/29 16:45:10;;;;;;;1.77;1.08;;;21.10;99.90;;;;;;4955193;29;20244;-72
2023/08/29 16:47:39;;;;;;;3.13;1.08;;;21.00;99.90;;;;;;4955107;29;20215;-72
2023/08/29 16:50:07;;;;;;;2.50;1.10;;;20.70;99.90;;;;;;4954087;28;20236;-72
2023/08/29 16:52:34;;;;;;;1.02;0.93;;;20.60;99.90;;;;;;4955096;28;20714;-72
2023/08/29 16:55:02;;;;;;;2.33;0.90;;;20.60;99.90;;;;;;4955131;28;20250;-72
2023/08/29 16:57:30;;;;;;;3.25;1.27;;;20.60;99.90;;;;;;4950658;28;20679;-72
2023/08/29 16:59:59;;;;;;;1.50;1.05;;;20.70;99.90;;;;;;4954860;28;20239;-73
2023/08/29 17:02:27;;;;;;;3.63;1.00;;;20.60;99.90;;;;;;4954056;28;20667;-73
2023/08/29 17:04:54;;;;;;;2.88;1.10;;;20.40;99.90;;;;;;4955077;28;20302;-71
2023/08/29 17:07:22;;;;;;;1.83;1.05;;;20.30;99.90;;;;;;4954186;28;20351;-71
2023/08/29 17:09:48;;;;;;;3.50;0.95;;;20.30;99.90;;;;;;4954689;28;20385;-74
2023/08/29 17:12:17;;;;;;;2.65;1.02;;;20.40;99.90;;;;;;4954424;28;20235;-74
2023/08/29 17:14:44;;;;;;;1.67;0.85;;;20.40;99.90;;;;;;4954414;28;20705;-73
2023/08/29 17:17:13;;;;;;;2.72;1.17;;;20.60;99.90;;;;;;4954477;28;20250;-70
2023/08/29 17:19:40;;;;;;;3.63;1.45;;;20.50;99.90;;;;;;4954429;28;20228;-74
2023/08/29 17:22:07;;;;;;;5.88;1.20;;;20.40;99.90;;;;;;4954792;29;20240;-72
2023/08/29 17:24:35;;;;;;;1.83;1.20;;;20.40;99.90;;;;;;4954528;28;20247;-72
2023/08/29 17:27:02;;;;;;;3.42;1.20;;;20.40;99.90;;;;;;4954781;28;20290;-71
2023/08/29 17:29:30;;;;;;;1.80;0.95;;;20.30;99.90;;;;;;4954437;28;20318;-70
2023/08/29 17:31:58;;;;;;;1.23;0.95;;;20.20;99.90;;;;;;4954486;28;20318;-70
2023/08/29 17:34:27;;;;;;;1.83;0.93;;;20.20;99.90;;;;;;4954380;28;20212;-72
2023/08/29 17:36:54;;;;;;;8.55;1.65;;;20.10;99.90;;;;;;4954792;28;20236;-70
2023/08/29 17:39:21;;;;;;;5.55;1.50;;;20.10;99.90;;;;;;4954326;28;20311;-71
2023/08/29 17:41:48;;;;;;;2.72;1.00;;;20.10;99.90;;;;;;4954601;29;20212;-70
2023/08/29 17:44:14;;;;;;;4.05;1.52;;;20.00;99.90;;;;;;4954606;28;20239;-71
2023/08/29 17:46:41;;;;;;;3.53;1.25;;;19.90;99.90;;;;;;4954478;29;20246;-71
2023/08/29 17:49:08;;;;;;;2.58;1.35;;;19.80;99.90;;;;;;4954368;28;20236;-70
2023/08/29 17:51:37;;;;;;;1.73;0.88;;;19.70;99.90;;;;;;4954422;28;20275;-70
2023/08/29 17:54:04;;;;;;;4.32;1.13;;;19.60;99.90;;;;;;4954307;28;20254;-71
2023/08/29 17:56:31;;;;;;;1.98;1.08;;;19.40;99.90;;;;;;4954389;28;20636;-70
2023/08/29 17:58:59;;;;;;;2.58;0.90;;;19.40;99.90;;;;;;4954694;28;20263;-72
2023/08/29 18:01:26;;;;;;;2.95;1.30;;;19.40;99.90;;;;;;4955836;28;20204;-70
2023/08/29 18:03:54;;;;;;;4.25;1.35;;;19.30;99.90;;;;;;4958242;29;20710;-71
2023/08/29 18:06:21;;;;;;;2.70;1.30;;;19.20;99.90;;;;;;4949004;28;20676;-69
2023/08/29 18:08:50;;;;;;;2.00;1.27;;;19.00;99.90;;;;;;4956348;28;20298;-70
2023/08/29 18:11:18;;;;;;;3.40;1.13;;;18.90;99.90;;;;;;4955583;28;20240;-69
2023/08/29 18:13:46;;;;;;;2.42;1.00;;;18.90;99.90;;;;;;4955681;28;20220;-69
2023/08/29 18:16:13;;;;;;;1.73;0.93;;;18.90;99.90;;;;;;4955691;28;20208;-69
2023/08/29 18:18:40;;;;;;;1.63;0.93;;;18.80;99.90;;;;;;4956126;28;20212;-71
2023/08/29 18:21:08;;;;;;;3.28;1.40;;;18.70;99.90;;;;;;4955492;28;20235;-69
2023/08/29 18:23:35;;;;;;;2.00;1.13;;;18.50;99.90;;;;;;4955685;28;20219;-70
2023/08/29 18:26:04;;;;;;;2.58;1.02;;;18.40;99.90;;;;;;4955935;28;20204;-71
2023/08/29 18:28:32;;;;;;;2.63;1.45;;;18.20;99.90;;;;;;4955510;28;20615;-70
2023/08/29 18:30:59;;;;;;;2.13;1.10;;;18.10;99.90;;;;;;4956363;28;20234;-72
2023/08/29 18:33:26;;;;;;;1.35;1.00;;;18.10;99.90;;;;;;4956106;28;20235;-70
